Create Custom Reports and Graphics: Custom Report

Soquel - CalFire

Current Conditions

2/28/20 6:15 PM (-08:00)
Updated Every 15 Minutes
Temp 61.1 °F   1.9
RH 43 %   10
Dew Pt 38.3 °F   7.4
Wind Spd 1.1 mph
Wind Dir E | 100 °
Wind Gust 1.6 mph   0.1
Latest Rain 0.00 In
Daily Rain 0.00 In
Leaf Wet 0.0 mins
Daily Min Temp 55.5 °F   3.2
Daily Max Temp 76.6 °F   3.0

Daily Summary

Last 30 Days

Daily Data | America/Los_Angeles
as of 2/28/20 6:27 PM PST
Date Daily Max Temp (°F) Daily Min Temp (°F) Daily Rain (In) Seasonal Rainfall (In) Daily Solar Rad (Cal/cm2) Daily ETo (in) Wind Spd (mph) Daily Max Wind (mph) Max Wind Dir (°) Dew Pt (°F) Max RH (%) Min RH (%) Leaf Wet (hrs) Soil Temp (°F) Soil Moist (%) Fuel Moisture (%) Max Fuel Moisture (%) Min Fuel Moisture (%) Bat Volt Min Day (V)
2/27/20 79.6 52.3 0.00 17.72 394 0.107 1.3 9.6 NNW | 342 37.3 58 19 0.0 51.9 22.2 9 14 0 12.4
2/26/20 76.6 50.9 0.00 17.72 430 0.114 1.5 8.5 NW | 309 33.6 54 15 0.0 51.7 22.0 9 14 0 12.4
2/25/20 74.9 52.7 0.00 17.72 425 0.109 2.4 18.6 NNE | 32 26.6 50 14 0.0 51.6 22.0 10 14 0 12.4
2/24/20 70.3 42.5 0.00 17.72 420 0.105 1.8 19.5 NE | 52 33.8 91 14 10.1 51.5 22.1 19 31 4 12.4
2/23/20 62.4 41.0 0.00 17.72 398 0.094 1.0 7.3 WSW | 248 42.4 91 51 14.1 51.3 22.3 18 24 10 12.4
2/22/20 60.6 44.3 0.00 17.72 275 0.065 1.2 9.1 W | 262 41.5 88 33 0.7 51.2 22.4 14 18 8 12.4
2/21/20 70.2 50.9 0.00 17.72 226 0.059 1.4 7.5 NNW | 329 31.0 54 19 0.0 51.1 22.4 12 15 4 12.4
2/20/20 70.4 45.3 0.00 17.72 379 0.093 1.4 6.9 S | 188 33.6 68 16 0.0 51.1 22.5 12 17 0 12.4
2/19/20 66.8 42.7 0.00 17.72 390 0.095 1.4 9.1 WSW | 242 33.5 70 27 0.0 51.0 22.5 12 16 3 12.4
2/18/20 68.4 46.0 0.00 17.72 393 0.096 1.4 6.7 NW | 310 28.2 57 20 0.0 51.0 22.7 11 15 2 12.4
2/17/20 67.4 46.0 0.00 17.72 386 0.090 2.6 21.0 ENE | 66 24.7 80 13 0.0 50.9 22.9 14 21 3 12.4
2/16/20 67.0 44.1 0.00 17.72 356 0.086 1.1 6.1 SSW | 203 35.8 77 30 0.0 50.8 23.0 16 20 4 12.5
2/15/20 65.9 44.2 0.00 17.72 349 0.085 1.3 5.7 WSW | 257 40.0 78 41 0.0 50.8 23.0 19 24 8 12.4
2/14/20 64.3 36.3 0.00 17.72 345 0.079 1.0 6.4 SW | 227 40.2 93 43 11.0 50.8 23.1 22 28 11 12.4
2/13/20 59.3 38.0 0.00 17.72 368 0.084 1.0 8.6 NW | 306 40.1 92 58 11.5 50.7 23.2 17 24 10 12.4
2/12/20 67.4 44.9 0.00 17.72 357 0.086 1.2 7.2 WSW | 239 33.9 77 27 0.0 50.7 23.3 11 16 2 12.4
2/11/20 70.3 52.0 0.00 17.72 366 0.088 2.3 14.3 NNE | 28 22.8 46 13 0.0 50.7 23.4 9 12 0 12.4
2/10/20 68.1 47.7 0.00 17.72 364 0.085 3.3 20.2 NE | 50 19.6 33 13 0.0 50.8 23.5 10 14 0 12.5
2/9/20 58.0 43.2 0.00 17.72 354 0.076 4.7 27.5 ENE | 57 22.4 73 24 0.0 50.8 23.7 14 18 9 12.4
2/8/20 62.1 44.6 0.00 17.72 356 0.084 1.4 14.5 WNW | 296 39.4 84 51 0.0 50.8 23.8 15 18 7 12.4
2/7/20 71.9 48.5 0.00 17.72 350 0.088 1.3 5.5 WNW | 289 40.1 71 33 0.0 50.9 23.9 13 17 1 12.4
2/6/20 68.4 44.2 0.00 17.72 342 0.083 1.8 12.5 NNW | 348 39.7 72 30 0.0 51.0 23.9 9 15 0 12.4
2/5/20 65.6 37.5 0.00 17.72 286 0.057 0.9 10.3 N | 354 34.5 64 26 0.0 51.3 23.8 11 13 0 12.4
2/4/20 52.2 37.4 0.00 17.72 282 0.053 2.2 15.3 N | 350 16.1 54 18 0.0 51.5 23.6 9 12 6 12.6
2/3/20 42.8 40.0 0.00 - 0 0.000 2.9 15.7 SW | 224 10.6 34 22 0.0 51.6 21.6 10 11 0 12.7
2/2/20 54.7 38.2 0.00 17.72 306 0.061 2.0 19.3 NNW | 337 31.4 88 21 0.6 51.5 28.0 14 19 7 12.0
2/1/20 75.0 49.2 0.00 17.72 294 0.074 1.4 5.5 NW | 321 45.6 82 36 0.0 51.4 28.4 14 24 0 12.0
1/31/20 70.6 48.6 0.00 17.72 276 0.067 1.3 7.8 NNE | 29 48.1 90 49 4.1 51.4 28.5 16 25 0 12.0
1/30/20 65.0 46.1 0.00 17.72 250 0.058 1.3 8.9 NNE | 33 45.4 93 45 7.6 51.4 28.7 15 20 4 12.0
1/29/20 64.7 42.5 0.01 17.72 243 0.054 1.7 13.2 WSW | 256 37.6 93 23 7.0 51.3 28.8 20 30 7 12.0
Max 79.6 52.7 0.01 - 430 0.114 4.7 27.5 - 48.1 93 58 14.1 51.9 28.8 22 31 11 12.7
Avg - - - - - - 1.7 - - 33.7 - - - 51.1 23.8 14 19 4 -
Min 42.8 36.3 0.00 - 0 0.000 0.9 5.5 - 10.6 33 13 0.0 50.7 21.6 9 11 0 12.0